Karos, South Africa
Current Conditions -  °F | °C
As of 7:00 PM on Saturday 22 Nov 2014 (Local Time) from FAUP Reporting Station
Broken Clouds Broken Clouds  
Wind Chill: 86°   Ceiling: 10000
Heat Index: 86°   Visibility: 6mi
Dew Point: 41°   Wind: 18mph
Humidity: 20%   Direction: 360°N
Pressure: 29.88"   Gusts: NA
Location:  28.42°S, 21.57°E
Report Text: FAUP 221700Z 36016KT 9999 FEW040 BKN100 30/05 Q1012 NOSIG
Loading
Personal Weather Stations






























Interactive Weather Map New forecast layout! Learn more

10-Day Weather Forecast

Advertisements
Track Severe Weather on mobile